Time;durP1;ratioP1;P1;durP2;ratioP2;P2;SDS_P1;SDS_P2;PMS_P1;PMS_P2;Temp;Humidity;BMP_temperature;BMP_pressure;BME280_temperature;BME280_humidity;BME280_pressure;Samples;Min_cycle;Max_cycle;Signal;HPM_P1;HPM_P2
2021/12/26 00:02:07;;;;;;;2.05;1.63;;;12.30;71.70;;;;;;10495124;28;20052;-75
2021/12/26 00:07:09;;;;;;;1.88;1.60;;;12.30;71.70;;;;;;10495240;28;20052;-75
2021/12/26 00:12:10;;;;;;;1.90;1.50;;;12.30;71.70;;;;;;10495008;28;20106;-75
2021/12/26 00:17:12;;;;;;;2.13;1.92;;;12.40;72.30;;;;;;10494750;28;20055;-76
2021/12/26 00:22:13;;;;;;;2.35;1.90;;;12.40;71.70;;;;;;10494970;28;20040;-75
2021/12/26 00:27:15;;;;;;;2.33;1.85;;;12.30;71.60;;;;;;10494843;28;20051;-76
2021/12/26 00:32:16;;;;;;;3.85;1.70;;;12.30;71.60;;;;;;10494761;28;20536;-76
2021/12/26 00:37:18;;;;;;;2.88;2.10;;;12.30;71.50;;;;;;10494479;28;20489;-76
2021/12/26 00:42:19;;;;;;;2.28;1.60;;;12.30;71.50;;;;;;10494478;28;20056;-76
2021/12/26 00:47:21;;;;;;;2.00;1.60;;;12.30;71.50;;;;;;10493739;28;20048;-76
2021/12/26 00:52:22;;;;;;;2.78;1.90;;;12.30;71.40;;;;;;10494233;28;20045;-76
2021/12/26 00:57:24;;;;;;;1.73;1.20;;;12.30;71.40;;;;;;10493958;28;20063;-76
2021/12/26 01:02:25;;;;;;;2.00;1.70;;;12.30;71.40;;;;;;10493964;28;20448;-76
2021/12/26 01:07:36;;;;;;;2.95;1.98;;;12.30;71.30;;;;;;10493760;28;20444;-77
2021/12/26 01:12:40;;;;;;;2.42;1.55;;;12.30;71.30;;;;;;10493890;28;20429;-76
2021/12/26 01:17:43;;;;;;;2.22;1.58;;;12.30;71.30;;;;;;10500561;28;20489;-76
2021/12/26 01:22:45;;;;;;;2.53;1.60;;;12.20;71.20;;;;;;10501027;28;20045;-76
2021/12/26 01:27:46;;;;;;;1.85;1.50;;;12.30;71.30;;;;;;10501320;28;20044;-76
2021/12/26 01:32:48;;;;;;;1.92;1.60;;;12.30;71.30;;;;;;10501264;28;20041;-76
2021/12/26 01:37:49;;;;;;;1.88;1.45;;;12.30;71.20;;;;;;10500503;28;20044;-76
2021/12/26 01:42:51;;;;;;;1.52;1.23;;;12.20;71.20;;;;;;10500523;28;20051;-76
2021/12/26 01:47:53;;;;;;;1.88;1.20;;;12.20;71.20;;;;;;10499833;28;20048;-76
2021/12/26 01:52:54;;;;;;;1.95;1.45;;;12.20;71.00;;;;;;10500054;28;20045;-75
2021/12/26 01:57:56;;;;;;;1.75;1.50;;;12.20;71.10;;;;;;10499543;28;20121;-76
2021/12/26 02:02:58;;;;;;;1.90;1.38;;;12.20;71.00;;;;;;10499477;28;20063;-76
2021/12/26 02:07:59;;;;;;;1.75;1.50;;;12.20;71.00;;;;;;10499602;28;20055;-76
2021/12/26 02:13:01;;;;;;;1.63;1.20;;;12.20;71.00;;;;;;10499203;28;20060;-76
2021/12/26 02:18:02;;;;;;;2.15;1.50;;;12.20;71.00;;;;;;10498698;28;20055;-75
2021/12/26 02:23:10;;;;;;;2.40;1.30;;;12.20;70.90;;;;;;10498702;28;20044;-76
2021/12/26 02:28:11;;;;;;;1.73;1.40;;;12.20;70.90;;;;;;10498764;28;20078;-74
2021/12/26 02:33:13;;;;;;;1.80;1.35;;;12.20;70.80;;;;;;10498165;28;20049;-75
2021/12/26 02:38:15;;;;;;;1.63;1.25;;;12.20;70.80;;;;;;10497843;28;20413;-76
2021/12/26 02:43:16;;;;;;;2.03;1.40;;;12.20;70.80;;;;;;10497925;28;20052;-76
2021/12/26 02:48:18;;;;;;;2.55;1.38;;;12.20;70.70;;;;;;10497283;28;20044;-75
2021/12/26 02:53:20;;;;;;;1.35;1.25;;;12.20;70.70;;;;;;10497635;28;20049;-76
2021/12/26 02:58:22;;;;;;;2.03;1.55;;;12.20;70.70;;;;;;10497803;28;20047;-75
2021/12/26 03:03:23;;;;;;;1.50;1.30;;;12.20;70.60;;;;;;10496908;28;20067;-76
2021/12/26 03:08:25;;;;;;;1.42;1.20;;;12.20;70.70;;;;;;10496961;28;20044;-76
2021/12/26 03:13:26;;;;;;;1.80;1.30;;;12.20;70.60;;;;;;10496607;28;20048;-76
2021/12/26 03:18:28;;;;;;;1.35;1.13;;;12.20;70.60;;;;;;10496159;28;20109;-76
2021/12/26 03:23:29;;;;;;;2.03;1.38;;;12.20;70.60;;;;;;10496270;28;20052;-76
2021/12/26 03:28:31;;;;;;;1.95;1.33;;;12.20;70.60;;;;;;10496016;28;20052;-76
2021/12/26 03:33:32;;;;;;;1.50;1.10;;;12.20;70.50;;;;;;10495957;28;20432;-76
2021/12/26 03:38:35;;;;;;;1.15;1.05;;;12.20;70.60;;;;;;10495336;28;20541;-76
2021/12/26 03:43:37;;;;;;;1.70;1.30;;;12.20;70.50;;;;;;10495818;28;20048;-76
2021/12/26 03:48:38;;;;;;;1.45;1.20;;;12.10;70.40;;;;;;10496084;28;20478;-76
2021/12/26 03:53:40;;;;;;;1.30;1.10;;;12.20;70.50;;;;;;10496197;28;20080;-75
2021/12/26 03:58:42;;;;;;;1.65;1.17;;;12.20;70.40;;;;;;10495154;28;20045;-76
2021/12/26 04:03:44;;;;;;;1.55;1.10;;;12.20;70.40;;;;;;10495415;28;20060;-75
2021/12/26 04:08:45;;;;;;;1.60;1.30;;;12.10;70.30;;;;;;10495254;28;20040;-76
2021/12/26 04:13:47;;;;;;;1.58;1.30;;;12.10;70.20;;;;;;10494737;28;20052;-76
2021/12/26 04:18:48;;;;;;;1.45;1.00;;;12.10;70.20;;;;;;10494639;28;20484;-74
2021/12/26 04:23:50;;;;;;;1.58;0.98;;;12.10;70.20;;;;;;10494664;28;20071;-76
2021/12/26 04:28:51;;;;;;;1.20;1.05;;;12.10;70.10;;;;;;10494973;28;20045;-76
2021/12/26 04:33:53;;;;;;;1.40;1.10;;;12.10;70.20;;;;;;10494743;28;20051;-76
2021/12/26 04:38:54;;;;;;;1.80;1.33;;;12.10;70.10;;;;;;10494602;28;20041;-76
2021/12/26 04:43:55;;;;;;;1.23;1.05;;;12.10;70.00;;;;;;10494368;28;20516;-75
2021/12/26 04:48:57;;;;;;;1.45;0.90;;;12.10;70.10;;;;;;10495893;28;20052;-75
2021/12/26 04:53:58;;;;;;;1.48;0.98;;;12.10;70.00;;;;;;10502519;28;20044;-75
2021/12/26 04:59:00;;;;;;;1.10;0.90;;;12.10;70.00;;;;;;10501792;28;20053;-75
2021/12/26 05:04:01;;;;;;;1.48;1.10;;;12.10;70.00;;;;;;10501561;28;20044;-75
2021/12/26 05:09:03;;;;;;;1.13;0.90;;;12.10;69.90;;;;;;10501661;28;20051;-75
2021/12/26 05:14:04;;;;;;;1.08;0.90;;;12.10;69.90;;;;;;10501131;28;20489;-74
2021/12/26 05:19:06;;;;;;;1.65;1.10;;;12.10;69.90;;;;;;10500975;28;20048;-75
2021/12/26 05:24:07;;;;;;;1.15;0.93;;;12.10;69.80;;;;;;10500784;28;20052;-75
2021/12/26 05:29:09;;;;;;;1.13;1.00;;;12.10;69.80;;;;;;10501170;28;20056;-75
2021/12/26 05:34:10;;;;;;;1.25;1.00;;;12.10;69.80;;;;;;10500885;28;20055;-75
2021/12/26 05:39:12;;;;;;;1.33;1.05;;;12.10;69.70;;;;;;10500427;28;20059;-74
2021/12/26 05:44:13;;;;;;;1.48;0.90;;;12.10;69.60;;;;;;10500509;28;20053;-75
2021/12/26 05:49:15;;;;;;;1.10;0.80;;;12.20;69.60;;;;;;10499693;28;20083;-75
2021/12/26 05:54:16;;;;;;;1.50;1.00;;;12.10;69.50;;;;;;10499975;28;20045;-75
2021/12/26 05:59:18;;;;;;;1.13;0.93;;;12.20;69.60;;;;;;10499395;28;20048;-75
2021/12/26 06:04:19;;;;;;;1.30;0.90;;;12.20;69.50;;;;;;10499420;28;20060;-75
2021/12/26 06:09:21;;;;;;;1.35;0.88;;;12.20;69.50;;;;;;10499464;28;20049;-75
2021/12/26 06:14:22;;;;;;;0.90;0.80;;;12.20;69.50;;;;;;10499086;28;20053;-74
2021/12/26 06:19:24;;;;;;;1.17;0.85;;;12.20;69.40;;;;;;10499124;28;20052;-74
2021/12/26 06:24:25;;;;;;;1.60;0.90;;;12.10;69.30;;;;;;10498833;28;20056;-75
2021/12/26 06:29:27;;;;;;;1.08;0.82;;;12.20;69.40;;;;;;10499127;28;20128;-75
2021/12/26 06:34:28;;;;;;;1.30;1.00;;;12.10;69.20;;;;;;10498602;28;20051;-75
2021/12/26 06:39:30;;;;;;;0.95;0.73;;;12.10;69.20;;;;;;10498182;28;20481;-75
2021/12/26 06:44:31;;;;;;;1.40;1.00;;;12.20;69.20;;;;;;10497883;28;20509;-74
2021/12/26 06:49:33;;;;;;;1.35;0.95;;;12.10;69.10;;;;;;10497305;28;20489;-74
2021/12/26 06:54:36;;;;;;;1.00;0.85;;;12.10;69.20;;;;;;10497427;28;20517;-75
2021/12/26 06:59:38;;;;;;;1.20;1.10;;;12.10;69.20;;;;;;10497066;28;20097;-74
2021/12/26 07:04:39;;;;;;;1.10;0.85;;;12.10;69.10;;;;;;10496750;28;20554;-75
2021/12/26 07:09:42;;;;;;;1.50;1.08;;;12.10;69.10;;;;;;10496505;28;20394;-75
2021/12/26 07:14:44;;;;;;;1.55;1.10;;;12.10;69.10;;;;;;10495881;28;20098;-74
2021/12/26 07:19:45;;;;;;;1.75;1.05;;;12.10;69.10;;;;;;10496368;28;20917;-76
2021/12/26 07:24:47;;;;;;;2.05;1.27;;;12.10;69.10;;;;;;10496217;28;20045;-75
2021/12/26 07:29:48;;;;;;;1.15;0.93;;;12.10;69.10;;;;;;10495841;28;20051;-75
2021/12/26 07:34:50;;;;;;;1.05;0.70;;;12.10;69.00;;;;;;10496192;28;20052;-75
2021/12/26 07:39:51;;;;;;;1.40;0.90;;;12.10;69.00;;;;;;10495688;28;20045;-74
2021/12/26 07:44:53;;;;;;;1.30;0.90;;;12.10;68.90;;;;;;10495672;28;20051;-75
2021/12/26 07:49:54;;;;;;;1.15;0.77;;;12.10;68.80;;;;;;10495202;28;20051;-75
2021/12/26 07:54:56;;;;;;;1.10;0.82;;;12.10;68.90;;;;;;10495207;28;20059;-75
2021/12/26 07:59:57;;;;;;;1.30;0.90;;;12.10;68.80;;;;;;10494999;28;20052;-75
2021/12/26 08:04:59;;;;;;;0.85;0.80;;;12.20;68.80;;;;;;10495052;28;20485;-75
2021/12/26 08:10:00;;;;;;;1.10;1.00;;;12.20;68.70;;;;;;10495255;28;20044;-75
2021/12/26 08:15:02;;;;;;;1.92;1.10;;;12.30;68.70;;;;;;10494630;28;20052;-74
2021/12/26 08:20:03;;;;;;;1.13;0.80;;;12.30;68.60;;;;;;10495257;28;20090;-75
2021/12/26 08:25:05;;;;;;;2.03;1.25;;;12.30;68.50;;;;;;10500153;28;20052;-75
2021/12/26 08:30:06;;;;;;;1.20;0.80;;;12.40;68.40;;;;;;10502871;28;20059;-75
2021/12/26 08:35:08;;;;;;;1.00;0.70;;;12.50;68.40;;;;;;10502833;28;20054;-75
2021/12/26 08:40:09;;;;;;;0.93;0.80;;;12.60;68.20;;;;;;10502843;28;20050;-75
2021/12/26 08:45:11;;;;;;;1.30;1.02;;;12.70;68.00;;;;;;10502734;28;20101;-75
2021/12/26 08:50:12;;;;;;;1.55;0.95;;;12.90;68.00;;;;;;10502466;28;20055;-75
2021/12/26 08:55:14;;;;;;;1.35;0.70;;;13.00;67.80;;;;;;10501960;28;20048;-75
2021/12/26 09:00:15;;;;;;;1.30;1.00;;;13.10;67.70;;;;;;10501798;28;20049;-75
2021/12/26 09:05:17;;;;;;;1.52;0.88;;;13.30;67.60;;;;;;10501504;28;20060;-74
2021/12/26 09:10:18;;;;;;;1.15;0.80;;;13.30;67.40;;;;;;10501651;28;20044;-74
2021/12/26 09:15:20;;;;;;;1.83;1.08;;;13.40;67.50;;;;;;10501205;28;20056;-74
2021/12/26 09:20:21;;;;;;;0.93;0.82;;;13.50;67.30;;;;;;10500730;28;20044;-75
2021/12/26 09:25:24;;;;;;;1.23;0.88;;;13.50;67.30;;;;;;10500569;28;20581;-75
2021/12/26 09:30:26;;;;;;;1.13;0.80;;;13.60;67.20;;;;;;10500851;28;20109;-75
2021/12/26 09:35:27;;;;;;;0.80;0.60;;;13.60;67.20;;;;;;10499985;28;20043;-76
2021/12/26 09:40:29;;;;;;;1.60;1.10;;;13.60;67.10;;;;;;10500180;28;20056;-76
2021/12/26 09:45:30;;;;;;;1.08;0.73;;;13.60;67.20;;;;;;10500276;28;20053;-76
2021/12/26 09:50:32;;;;;;;1.45;0.82;;;13.50;67.30;;;;;;10499802;28;20040;-76
2021/12/26 09:55:33;;;;;;;1.10;0.73;;;13.50;67.30;;;;;;10499874;28;20044;-76
2021/12/26 10:00:34;;;;;;;1.30;1.00;;;13.50;67.40;;;;;;10499805;28;20051;-74
2021/12/26 10:05:36;;;;;;;1.60;1.17;;;13.40;67.30;;;;;;10499220;28;20455;-75
2021/12/26 10:10:37;;;;;;;1.40;1.05;;;13.40;67.40;;;;;;10499220;28;20049;-75
2021/12/26 10:15:39;;;;;;;1.05;0.90;;;13.30;67.40;;;;;;10498740;28;20048;-75
2021/12/26 10:20:40;;;;;;;1.40;1.10;;;13.30;67.50;;;;;;10498429;28;20041;-75
2021/12/26 10:25:42;;;;;;;1.23;0.95;;;13.30;67.50;;;;;;10498467;28;20455;-75
2021/12/26 10:30:43;;;;;;;1.33;1.00;;;13.20;67.60;;;;;;10498284;28;20049;-76
2021/12/26 10:35:45;;;;;;;1.90;1.10;;;13.20;67.60;;;;;;10498146;28;20447;-75
2021/12/26 10:40:46;;;;;;;1.35;0.88;;;13.20;67.70;;;;;;10497999;28;20383;-76
2021/12/26 10:45:48;;;;;;;1.33;1.02;;;13.20;67.80;;;;;;10496600;28;20409;-75
2021/12/26 10:50:49;;;;;;;1.60;0.90;;;13.10;67.80;;;;;;10497330;28;20410;-75
2021/12/26 10:55:52;;;;;;;1.25;1.08;;;13.10;67.80;;;;;;10497041;28;20112;-75
2021/12/26 11:00:53;;;;;;;1.05;0.88;;;13.10;67.90;;;;;;10497275;28;20048;-75
2021/12/26 11:05:55;;;;;;;1.20;0.80;;;13.10;68.00;;;;;;10496836;28;20053;-75
2021/12/26 11:10:56;;;;;;;1.20;0.80;;;13.00;67.90;;;;;;10496900;28;20055;-75
2021/12/26 11:15:58;;;;;;;1.70;1.20;;;13.00;68.00;;;;;;10496542;28;20052;-75
2021/12/26 11:20:59;;;;;;;1.67;1.00;;;13.00;68.00;;;;;;10496126;28;20044;-75
2021/12/26 11:26:01;;;;;;;1.63;1.20;;;13.00;68.20;;;;;;10517418;28;20047;-74
2021/12/26 11:31:02;;;;;;;1.25;0.98;;;13.00;68.10;;;;;;10537010;28;20051;-74
2021/12/26 11:36:04;;;;;;;5.03;0.90;;;13.00;67.90;;;;;;10534657;28;20040;-77
2021/12/26 11:46:24;;;;;;;1.10;0.80;;;13.70;68.10;;;;;;10546255;22;20044;-75
2021/12/26 11:51:26;;;;;;;0.93;0.80;;;14.20;67.00;;;;;;10496044;28;20052;-75
2021/12/26 11:56:27;;;;;;;1.95;0.95;;;14.60;66.50;;;;;;10495262;28;20516;-76
2021/12/26 12:01:29;;;;;;;1.77;0.98;;;15.10;66.10;;;;;;10495545;28;20048;-77
2021/12/26 12:06:30;;;;;;;1.52;0.75;;;15.50;65.70;;;;;;10477629;28;20095;-76
2021/12/26 12:11:32;;;;;;;0.70;0.68;;;15.80;65.40;;;;;;10466158;28;20501;-77
2021/12/26 12:16:34;;;;;;;1.02;0.70;;;16.10;65.20;;;;;;10495181;28;20051;-75
2021/12/26 12:21:35;;;;;;;0.98;0.70;;;16.40;65.00;;;;;;10495324;28;20075;-76
2021/12/26 12:26:37;;;;;;;1.02;0.73;;;16.60;64.70;;;;;;10480063;28;20071;-76
2021/12/26 12:31:38;;;;;;;1.25;0.70;;;16.80;64.50;;;;;;10453400;28;20489;-76
2021/12/26 12:36:40;;;;;;;1.08;0.68;;;17.00;64.40;;;;;;10465035;28;20048;-75
2021/12/26 12:41:41;;;;;;;1.45;0.70;;;17.30;64.30;;;;;;10494545;28;20412;-76
2021/12/26 12:46:43;;;;;;;0.80;0.50;;;17.40;64.10;;;;;;10470979;28;20395;-77
2021/12/26 12:51:45;;;;;;;0.90;0.60;;;17.60;63.90;;;;;;10453286;28;20474;-76
2021/12/26 12:56:46;;;;;;;1.00;0.63;;;17.80;63.80;;;;;;10418354;28;20767;-77
2021/12/26 13:01:48;;;;;;;0.90;0.60;;;18.00;63.70;;;;;;10411884;28;20068;-76
2021/12/26 13:06:49;;;;;;;1.08;0.70;;;18.20;63.50;;;;;;10426931;28;20391;-76
2021/12/26 13:11:51;;;;;;;0.75;0.60;;;18.40;63.40;;;;;;10498614;28;20063;-76
2021/12/26 13:16:52;;;;;;;0.98;0.60;;;18.60;63.30;;;;;;10478963;28;20076;-77
2021/12/26 13:21:54;;;;;;;0.90;0.73;;;18.70;63.10;;;;;;10493221;28;20417;-77
2021/12/26 13:26:55;;;;;;;1.52;0.70;;;18.80;63.00;;;;;;10500997;28;20395;-77
2021/12/26 13:31:56;;;;;;;0.90;0.60;;;18.90;63.00;;;;;;10467798;28;20053;-76
2021/12/26 13:37:01;;;;;;;1.17;0.80;;;18.90;63.00;;;;;;10459602;28;20064;-77
2021/12/26 13:42:02;;;;;;;1.27;0.82;;;18.90;63.00;;;;;;10469831;28;20074;-76
2021/12/26 13:47:04;;;;;;;1.30;0.70;;;18.80;63.60;;;;;;10499807;28;20056;-76
2021/12/26 13:52:06;;;;;;;0.90;0.70;;;18.80;63.00;;;;;;10488864;28;20037;-77
2021/12/26 13:57:07;;;;;;;1.17;0.70;;;18.70;63.10;;;;;;10435038;28;20060;-77
2021/12/26 14:02:08;;;;;;;1.23;0.80;;;18.70;63.20;;;;;;10453751;28;20060;-75
2021/12/26 14:07:10;;;;;;;1.65;0.63;;;18.70;63.20;;;;;;10443538;28;20532;-77
2021/12/26 14:12:11;;;;;;;1.33;0.80;;;18.70;63.20;;;;;;10449424;28;20498;-75
2021/12/26 14:17:13;;;;;;;0.90;0.55;;;18.80;63.20;;;;;;10432043;28;20487;-75
2021/12/26 14:22:14;;;;;;;4.40;0.90;;;18.80;63.20;;;;;;10452100;28;20053;-76
2021/12/26 14:27:16;;;;;;;3.70;0.75;;;18.90;63.30;;;;;;10453406;28;20094;-75
2021/12/26 14:32:17;;;;;;;1.33;0.82;;;19.10;63.30;;;;;;10451976;28;20490;-77
2021/12/26 14:37:19;;;;;;;0.93;0.75;;;19.20;63.10;;;;;;10434647;28;20049;-77
2021/12/26 14:42:20;;;;;;;1.27;0.63;;;19.40;63.10;;;;;;10431990;28;20057;-76
2021/12/26 14:47:24;;;;;;;0.95;0.60;;;19.50;62.90;;;;;;10449719;28;20057;-76
2021/12/26 14:52:26;;;;;;;1.42;0.70;;;19.60;62.70;;;;;;10463214;28;20498;-76
2021/12/26 14:57:27;;;;;;;1.40;0.85;;;19.60;62.80;;;;;;10449479;28;20037;-76
2021/12/26 15:02:29;;;;;;;1.00;0.50;;;19.60;62.80;;;;;;10450053;28;20055;-77
2021/12/26 15:07:30;;;;;;;1.27;0.68;;;19.80;62.80;;;;;;10446868;28;20041;-77
2021/12/26 15:12:32;;;;;;;1.35;0.60;;;20.00;62.70;;;;;;10446220;28;20056;-76
2021/12/26 15:17:33;;;;;;;2.05;0.65;;;20.10;62.60;;;;;;10452609;28;20513;-77
2021/12/26 15:22:35;;;;;;;1.98;0.57;;;20.00;62.70;;;;;;10451696;28;20521;-77
2021/12/26 15:27:36;;;;;;;1.50;0.68;;;19.60;63.10;;;;;;10453310;28;20538;-77
2021/12/26 15:32:38;;;;;;;1.02;0.70;;;19.20;63.80;;;;;;10448294;28;20056;-77
2021/12/26 15:37:39;;;;;;;2.55;0.63;;;18.70;64.30;;;;;;10453441;28;20048;-76
2021/12/26 15:42:41;;;;;;;1.05;0.75;;;18.30;65.00;;;;;;10452150;28;20045;-78
2021/12/26 15:47:43;;;;;;;1.23;0.70;;;17.90;65.40;;;;;;10438603;28;20057;-77
2021/12/26 15:52:44;;;;;;;1.05;0.85;;;17.50;65.70;;;;;;10411676;28;20103;-78
2021/12/26 15:57:46;;;;;;;1.42;0.80;;;17.20;66.00;;;;;;10411327;28;20052;-77
2021/12/26 16:02:47;;;;;;;1.17;0.85;;;17.00;66.30;;;;;;10411477;28;20060;-77
2021/12/26 16:07:49;;;;;;;1.25;0.80;;;16.70;66.50;;;;;;10449290;28;20045;-78
2021/12/26 16:12:51;;;;;;;1.67;0.90;;;16.50;66.80;;;;;;10450297;28;20056;-77
2021/12/26 16:17:52;;;;;;;1.90;1.10;;;16.30;67.10;;;;;;10414324;28;20053;-78
2021/12/26 16:22:53;;;;;;;1.42;1.02;;;16.10;67.20;;;;;;10450409;28;20052;-76
2021/12/26 16:27:55;;;;;;;1.65;1.30;;;16.00;67.50;;;;;;10411453;28;20057;-76
2021/12/26 16:32:56;;;;;;;1.45;1.00;;;15.80;67.60;;;;;;10432712;28;20045;-76
2021/12/26 16:37:58;;;;;;;1.65;1.23;;;15.70;67.70;;;;;;10452302;28;20052;-76
2021/12/26 16:43:00;;;;;;;1.65;1.10;;;15.50;67.90;;;;;;10429002;28;20048;-77
2021/12/26 16:48:01;;;;;;;1.70;1.13;;;15.40;68.10;;;;;;10424460;28;20053;-77
2021/12/26 16:53:03;;;;;;;1.30;1.10;;;15.30;68.30;;;;;;10456418;28;20053;-75
2021/12/26 16:58:04;;;;;;;1.48;1.15;;;15.20;68.40;;;;;;10446215;28;20672;-76
2021/12/26 17:03:06;;;;;;;1.95;1.30;;;15.10;68.60;;;;;;10417682;28;20467;-76
2021/12/26 17:08:08;;;;;;;2.35;1.40;;;15.00;68.70;;;;;;10444622;28;20115;-77
2021/12/26 17:13:10;;;;;;;1.55;1.10;;;14.90;68.80;;;;;;10417368;28;20049;-77
2021/12/26 17:18:11;;;;;;;1.73;1.13;;;14.80;68.90;;;;;;10417126;28;20096;-77
2021/12/26 17:23:13;;;;;;;3.28;1.40;;;14.60;69.00;;;;;;10429748;28;20063;-77
2021/12/26 17:28:14;;;;;;;1.77;1.35;;;14.60;69.10;;;;;;10458025;28;20057;-77
2021/12/26 17:33:16;;;;;;;2.10;1.35;;;14.40;69.20;;;;;;10457594;28;20402;-76
2021/12/26 17:38:17;;;;;;;2.05;1.50;;;14.40;69.40;;;;;;10457796;28;20409;-76
2021/12/26 17:43:19;;;;;;;1.77;1.33;;;14.30;69.50;;;;;;10457440;28;20449;-76
2021/12/26 17:48:20;;;;;;;1.60;1.30;;;14.20;69.60;;;;;;10463796;28;20416;-76
2021/12/26 17:53:22;;;;;;;2.38;1.70;;;14.10;69.60;;;;;;10498452;28;20528;-76
2021/12/26 17:58:24;;;;;;;1.65;1.30;;;14.00;69.80;;;;;;10497136;28;20436;-77
2021/12/26 18:03:26;;;;;;;2.28;1.67;;;13.90;69.90;;;;;;10498621;28;20479;-77
2021/12/26 18:08:27;;;;;;;2.83;1.70;;;13.90;69.60;;;;;;10466690;28;20053;-75
2021/12/26 18:13:29;;;;;;;3.08;1.95;;;13.80;69.70;;;;;;10456027;28;20486;-77
2021/12/26 18:18:30;;;;;;;2.88;1.80;;;13.80;69.50;;;;;;10455702;28;20048;-75
2021/12/26 18:23:32;;;;;;;2.65;2.00;;;13.80;69.50;;;;;;10489299;28;20421;-76
2021/12/26 18:28:33;;;;;;;2.20;1.80;;;13.70;69.40;;;;;;10486645;28;20405;-76
2021/12/26 18:33:35;;;;;;;2.00;1.65;;;13.70;69.30;;;;;;10455536;28;20422;-76
2021/12/26 18:38:36;;;;;;;2.22;1.70;;;13.70;69.40;;;;;;10458820;28;20489;-75
2021/12/26 18:43:38;;;;;;;2.47;1.98;;;13.70;69.20;;;;;;10496331;28;20075;-75
2021/12/26 18:48:40;;;;;;;2.55;2.00;;;13.70;69.30;;;;;;10437291;28;20075;-75
2021/12/26 18:53:41;;;;;;;2.40;2.00;;;13.70;69.10;;;;;;10482031;28;20489;-76
2021/12/26 18:58:43;;;;;;;3.38;2.38;;;13.70;69.20;;;;;;10495394;28;20044;-75
2021/12/26 19:03:44;;;;;;;2.38;2.00;;;13.60;69.00;;;;;;10478091;28;20461;-76
2021/12/26 19:08:46;;;;;;;2.70;2.30;;;13.60;69.10;;;;;;10460446;28;20127;-77
2021/12/26 19:13:47;;;;;;;2.88;2.38;;;13.60;69.00;;;;;;10453978;28;20287;-76
2021/12/26 19:18:48;;;;;;;2.50;2.28;;;13.60;69.00;;;;;;10453902;28;20049;-74
2021/12/26 19:23:50;;;;;;;3.63;2.47;;;13.60;68.90;;;;;;10495226;28;20438;-76
2021/12/26 19:28:52;;;;;;;2.53;2.22;;;13.60;68.80;;;;;;10488482;28;20041;-76
2021/12/26 19:33:53;;;;;;;3.03;2.50;;;13.60;68.80;;;;;;10465128;28;20053;-74
2021/12/26 19:38:55;;;;;;;3.10;2.33;;;13.60;68.70;;;;;;10453905;28;20053;-76
2021/12/26 19:43:58;;;;;;;3.08;2.60;;;13.60;68.70;;;;;;10456979;28;20045;-75
2021/12/26 19:49:00;;;;;;;3.35;2.60;;;13.60;68.60;;;;;;10473369;28;20517;-76
2021/12/26 19:54:01;;;;;;;3.28;2.72;;;13.60;68.70;;;;;;10459968;28;20497;-75
2021/12/26 19:59:03;;;;;;;3.05;2.47;;;13.60;68.60;;;;;;10492854;28;20056;-76
2021/12/26 20:04:04;;;;;;;3.15;2.63;;;13.60;68.60;;;;;;10488474;28;20048;-75
2021/12/26 20:09:06;;;;;;;4.32;3.00;;;13.60;68.60;;;;;;10452066;28;20502;-75
2021/12/26 20:14:07;;;;;;;3.50;2.72;;;13.60;68.60;;;;;;10451938;28;20080;-75
2021/12/26 20:19:16;;;;;;;3.33;2.85;;;13.60;68.60;;;;;;10473775;28;20048;-75
2021/12/26 20:24:17;;;;;;;3.70;3.05;;;13.60;68.60;;;;;;10472105;28;20091;-76
2021/12/26 20:29:19;;;;;;;3.17;2.83;;;13.60;68.60;;;;;;10466024;28;20051;-74
2021/12/26 20:34:20;;;;;;;4.30;2.90;;;13.60;68.60;;;;;;10489888;28;20048;-76
2021/12/26 20:39:22;;;;;;;3.22;2.80;;;13.60;68.60;;;;;;10506734;28;20520;-74
2021/12/26 20:44:23;;;;;;;3.38;2.78;;;13.60;68.60;;;;;;10467309;28;20052;-76
2021/12/26 20:49:25;;;;;;;3.08;2.45;;;13.60;68.60;;;;;;10465578;28;20061;-75
2021/12/26 20:54:26;;;;;;;3.67;2.80;;;13.60;68.60;;;;;;10467704;28;20052;-75
2021/12/26 20:59:28;;;;;;;3.70;2.47;;;13.60;68.50;;;;;;10465053;28;20049;-74
2021/12/26 21:04:29;;;;;;;4.15;3.05;;;13.60;68.60;;;;;;10464886;28;20053;-76
2021/12/26 21:09:31;;;;;;;3.00;2.70;;;13.60;68.60;;;;;;10475147;28;20464;-76
2021/12/26 21:14:32;;;;;;;3.67;2.63;;;13.60;68.60;;;;;;10471635;28;20113;-76
2021/12/26 21:19:37;;;;;;;3.72;2.83;;;13.60;68.60;;;;;;10464768;28;20045;-76
2021/12/26 21:24:38;;;;;;;3.30;2.72;;;13.70;68.30;;;;;;10465947;28;20110;-76
2021/12/26 21:29:40;;;;;;;3.20;2.47;;;14.20;68.10;;;;;;10467720;28;20057;-75
2021/12/26 21:34:41;;;;;;;3.35;2.70;;;14.70;67.50;;;;;;10447229;28;20051;-77
2021/12/26 21:39:43;;;;;;;3.30;2.67;;;15.30;66.90;;;;;;10432734;28;20045;-76
2021/12/26 21:44:44;;;;;;;3.05;2.58;;;15.70;66.40;;;;;;10437627;28;20057;-77
2021/12/26 21:49:50;;;;;;;2.53;2.05;;;16.20;66.00;;;;;;10451808;28;20049;-76
2021/12/26 21:54:51;;;;;;;3.38;2.28;;;16.60;65.50;;;;;;10452983;28;20422;-78
2021/12/26 21:59:53;;;;;;;2.75;2.28;;;16.90;65.20;;;;;;10452885;28;20398;-77
2021/12/26 22:04:54;;;;;;;2.38;2.00;;;17.20;64.80;;;;;;10455940;28;20489;-76
2021/12/26 22:09:56;;;;;;;2.72;2.15;;;17.50;64.70;;;;;;10444342;28;20413;-76
2021/12/26 22:14:57;;;;;;;2.80;1.90;;;17.70;64.50;;;;;;10460585;28;20060;-76
2021/12/26 22:19:59;;;;;;;3.17;2.17;;;17.90;64.30;;;;;;10463285;28;20044;-75
2021/12/26 22:25:05;;;;;;;2.25;2.05;;;18.20;64.10;;;;;;10490236;28;20047;-77
2021/12/26 22:30:07;;;;;;;;;;;18.40;63.80;;;;;;10456716;28;20563;-76
2021/12/26 22:35:08;;;;;;;3.00;2.20;;;18.50;64.80;;;;;;10465881;28;19924;-76
2021/12/26 22:40:10;;;;;;;2.80;2.25;;;18.70;63.60;;;;;;10459514;28;20509;-76
2021/12/26 22:45:11;;;;;;;3.88;2.30;;;18.70;63.30;;;;;;10483864;28;20662;-76
2021/12/26 22:50:12;;;;;;;2.65;2.30;;;18.70;63.30;;;;;;10489774;28;20190;-76
2021/12/26 22:55:14;;;;;;;2.95;2.05;;;18.70;63.30;;;;;;10454327;28;20520;-75
2021/12/26 23:00:15;;;;;;;2.60;2.22;;;18.70;63.40;;;;;;10454366;28;20048;-76
2021/12/26 23:05:17;;;;;;;2.67;2.38;;;18.70;63.30;;;;;;10491923;28;20059;-77
2021/12/26 23:10:18;;;;;;;3.17;2.53;;;18.60;63.40;;;;;;10477785;28;20057;-76
2021/12/26 23:15:20;;;;;;;2.45;2.10;;;18.60;63.30;;;;;;10453399;28;20045;-75
2021/12/26 23:20:21;;;;;;;3.78;2.55;;;18.60;63.40;;;;;;10453208;28;20045;-76
2021/12/26 23:25:23;;;;;;;3.30;2.60;;;18.60;63.40;;;;;;10456902;28;20417;-76
2021/12/26 23:30:24;;;;;;;3.28;2.22;;;18.60;63.40;;;;;;10462578;28;20477;-75
2021/12/26 23:35:26;;;;;;;2.80;2.50;;;18.60;63.40;;;;;;10466660;28;20048;-76
2021/12/26 23:40:30;;;;;;;3.03;2.42;;;18.60;63.40;;;;;;10452310;28;20056;-77
2021/12/26 23:45:32;;;;;;;3.00;2.30;;;18.60;63.40;;;;;;10485924;28;20095;-78
2021/12/26 23:50:33;;;;;;;3.03;2.42;;;18.60;63.40;;;;;;10470709;28;20123;-77
2021/12/26 23:55:35;;;;;;;2.85;2.42;;;18.60;63.40;;;;;;10452117;28;20056;-78
